Zazoe — PH6558 — position and weather

sailwx.info

Track history (hours):
 
Tides and Currents Weather Stations Pressure Air Temp Water Temp Dewpoint Dewpoint Depression Visibility Wind Speed Wind Dir Waves Ship Positions

Zazoe

Last reported at 2017-May-28 12:17 UTC. Time now 2017-Jun-28 05:36 UTC.
Position N 51°26' E 004°00'.
Warning: this ship's position is 30 days out of date.

Length 15 m.

Type: Pleasure craft. MMSI: 244050035.

Date/timePositionNaut miles runAvg speedWind from/ knotsBaromVisibWave heightAir tempDewpointWater temp
2017-May-28 12:17N 51°26' E 004°00'2 6.9
2017-May-28 12:00N 51°25' E 003°58'4 7.3
2017-May-28 11:30N 51°22' E 003°54'4 6.6
2017-May-28 10:58N 51°21' E 003°49'4 5.9
2017-May-28 10:23N 51°22' E 003°43'15 0.6
2017-May-27 09:49N 51°22' E 003°19'2 7.4
2017-May-27 09:30N 51°22' E 003°15'3 6.9
2017-May-27 08:59N 51°21' E 003°09'3 6.6
2017-May-27 08:28N 51°20' E 003°05'3 6.5
2017-May-27 07:59N 51°18' E 003°01'3 6.6
2017-May-27 07:30N 51°16' E 002°56'3 6.3
2017-May-27 07:01N 51°15' E 002°52'3 6.4
2017-May-27 06:30N 51°14' E 002°47'4 7.2
2017-May-27 06:00N 51°12' E 002°42'3 5.8
2017-May-27 05:29N 51°10' E 002°38'3 7.0
2017-May-27 05:00N 51°08' E 002°34'4 6.9
2017-May-27 04:27N 51°05' E 002°29'3 6.9
2017-May-27 03:58N 51°04' E 002°24'3 6.1
2017-May-27 03:30N 51°04' E 002°20'4 7.2
2017-May-27 02:58N 51°03' E 002°14'3 6.9
2017-May-27 02:30N 51°03' E 002°09'4 7.8
2017-May-27 01:59N 51°02' E 002°02'24 6.1
2017-May-26 22:02N 51°06' E 001°25'15 0.4
2017-May-25 08:15N 51°02' E 001°47'3 8.3
2017-May-25 07:51N 51°04' E 001°52'4 8.7
2017-May-25 07:24N 51°05' E 001°57'8 8.1
2017-May-25 06:27N 51°09' E 002°08'4 8.1
2017-May-25 06:00N 51°10' E 002°13'4 7.9
2017-May-25 05:27N 51°13' E 002°19'3 7.2
2017-May-25 05:00N 51°14' E 002°23'4 7.2
2017-May-25 04:30N 51°16' E 002°29'4 6.8
2017-May-25 03:59N 51°18' E 002°34'3 6.8
2017-May-25 03:30N 51°19' E 002°38'3 6.3
2017-May-25 03:00N 51°21' E 002°43'4 5.9
2017-May-25 02:24N 51°22' E 002°48'2 5.6
2017-May-25 01:59N 51°23' E 002°51'2 5.2
2017-May-25 01:30N 51°24' E 002°55'2 4.9
2017-May-25 01:00N 51°25' E 002°58'3 5.0
2017-May-25 00:28N 51°26' E 003°02'2 4.8
2017-May-24 23:58N 51°27' E 003°06'2 4.9
2017-May-24 23:29N 51°28' E 003°09'  
Track history (hours):
 
Tides and Currents Weather Stations Pressure Air Temp Water Temp Dewpoint Dewpoint Depression Visibility Wind Speed Wind Dir Waves Ship Positions

Zazoe

Last reported at 2017-May-28 12:17 UTC. Time now 2017-Jun-28 05:36 UTC.
Position N 51°26' E 004°00'.
Warning: this ship's position is 30 days out of date.

Length 15 m.

Type: Pleasure craft. MMSI: 244050035.

Date/timePositionNaut miles runAvg speedWind from/ knotsBaromVisibWave heightAir tempDewpointWater temp
2017-May-28 12:17N 51°26' E 004°00'2 6.9
2017-May-28 12:00N 51°25' E 003°58'4 7.3
2017-May-28 11:30N 51°22' E 003°54'4 6.6
2017-May-28 10:58N 51°21' E 003°49'4 5.9
2017-May-28 10:23N 51°22' E 003°43'15 0.6
2017-May-27 09:49N 51°22' E 003°19'2 7.4
2017-May-27 09:30N 51°22' E 003°15'3 6.9
2017-May-27 08:59N 51°21' E 003°09'3 6.6
2017-May-27 08:28N 51°20' E 003°05'3 6.5
2017-May-27 07:59N 51°18' E 003°01'3 6.6
2017-May-27 07:30N 51°16' E 002°56'3 6.3
2017-May-27 07:01N 51°15' E 002°52'3 6.4
2017-May-27 06:30N 51°14' E 002°47'4 7.2
2017-May-27 06:00N 51°12' E 002°42'3 5.8
2017-May-27 05:29N 51°10' E 002°38'3 7.0
2017-May-27 05:00N 51°08' E 002°34'4 6.9
2017-May-27 04:27N 51°05' E 002°29'3 6.9
2017-May-27 03:58N 51°04' E 002°24'3 6.1
2017-May-27 03:30N 51°04' E 002°20'4 7.2
2017-May-27 02:58N 51°03' E 002°14'3 6.9
2017-May-27 02:30N 51°03' E 002°09'4 7.8
2017-May-27 01:59N 51°02' E 002°02'24 6.1
2017-May-26 22:02N 51°06' E 001°25'15 0.4
2017-May-25 08:15N 51°02' E 001°47'3 8.3
2017-May-25 07:51N 51°04' E 001°52'4 8.7
2017-May-25 07:24N 51°05' E 001°57'8 8.1
2017-May-25 06:27N 51°09' E 002°08'4 8.1
2017-May-25 06:00N 51°10' E 002°13'4 7.9
2017-May-25 05:27N 51°13' E 002°19'3 7.2
2017-May-25 05:00N 51°14' E 002°23'4 7.2
2017-May-25 04:30N 51°16' E 002°29'4 6.8
2017-May-25 03:59N 51°18' E 002°34'3 6.8
2017-May-25 03:30N 51°19' E 002°38'3 6.3
2017-May-25 03:00N 51°21' E 002°43'4 5.9
2017-May-25 02:24N 51°22' E 002°48'2 5.6
2017-May-25 01:59N 51°23' E 002°51'2 5.2
2017-May-25 01:30N 51°24' E 002°55'2 4.9
2017-May-25 01:00N 51°25' E 002°58'3 5.0
2017-May-25 00:28N 51°26' E 003°02'2 4.8
2017-May-24 23:58N 51°27' E 003°06'2 4.9
2017-May-24 23:29N 51°28' E 003°09'  

Dump ship's entire track history